Tiempo atmosférico en la estación meteorológica de Benamejí, Córdoba (465 m.)



Fecha
DESCASC
Temp. máxima en grados centígrados (hora)
DESCASC
Temp. mínima en grados centígrados (hora)
DESCASC
Temp. media en grados centígrados
DESCASC
Racha de viento máxima en m/sg (hora)
DESCASC
Velocidad máxima media en intervalos de 10 minutos(hora)
DESCASC
Precipitaciones diarias en mm
DESCASC
Precipitaciones de 00:00 a 06:00 en mm
DESCASC
Precipitaciones de 06:00 a 12:00 en mm
DESCASC
Precipitaciones de 12:00 a 18:00 en mm
DESCASC
Precipitaciones de 18:00 a 24:00 en mm
DESCASC
25-04-2019 17.1 (18:30) 9.6 (10:00) 13.4 12.78 (09:00) 8.06 (00:10) 8.4 1 7.4 0 0
24-04-2019 16.5 (18:00) 6.8 (03:00) 11.7 14.44 (15:20) 10 (15:20) 0.8 0.4 0.4 0 0
23-04-2019 13.5 (00:00) 7.8 (22:50) 10.7 15 (19:20) 8.33 (16:50) 15.4 0 6.8 2.4 6.2
22-04-2019 20.6 (17:50) 9.3 (00:00) 15 13.89 (21:10) 8.89 (21:10) 0 0 0 0 0
21-04-2019 15.6 (16:40) 10.1 (00:00) 12.9 6.94 (15:30) 4.44 (17:00) 0.6 0.2 0 0 0.4
20-04-2019 18.3 (15:30) 8 (00:00) 13.1 8.89 (17:30) 5.56 (17:30) 6 0 0 0 6
19-04-2019 17.1 (17:00) 7.6 (00:00) 12.4 8.89 (19:10) 6.67 (18:50) 0.2 0.2 0 0 0
18-04-2019 15.1 (12:20) 8.3 (00:00) 11.7 10 (18:10) 6.11 (18:10) 11.8 0 0.8 5.2 5.8
17-04-2019 22.6 (14:30) 12.9 (00:00) 17.8 16.11 (13:30) 11.67 (13:20) 0 0 0 0 0
16-04-2019 24.6 (16:30) 10.8 (00:00) 17.7 10.56 (21:20) 7.5 (21:40) 0 0 0 0 0
15-04-2019 26.7 (15:40) 14.3 (00:00) 20.5 15.83 (15:30) 8.89 (18:30) 0 0 0 0 0
14-04-2019 25 (17:10) 9.4 (00:00) 17.2 6.11 (16:30) 3.89 (18:10) 0 0 0 0 0
13-04-2019 21.9 (18:00) 7.3 (00:00) 14.6 6.94 (18:10) 4.17 (18:10) 0 0 0 0 0
12-04-2019 19.7 (17:50) 6.5 (00:00) 13.1 7.22 (13:30) 4.17 (18:50) 0 0 0 0 0
11-04-2019 18.1 (18:00) 6.6 (00:00) 12.4 8.61 (15:30) 4.72 (15:40) 0 0 0 0 0
10-04-2019 15.5 (18:40) 6.8 (00:00) 11.2 10.56 (19:00) 5.28 (18:30) 0 0 0 0 0
09-04-2019 14.9 (15:30) 6.5 (00:00) 10.7 12.5 (16:20) 8.33 (16:20) 3.6 0 0.2 0 3.4
08-04-2019 13.9 (15:40) 9.9 (00:00) 11.9 14.17 (17:40) 9.44 (17:50) 1.4 0 0 1.2 0.2
07-04-2019 12.5 (15:30) 7.1 (00:00) 9.8 10.83 (22:50) 6.67 (03:30) 7 0.2 0.4 1.4 5
06-04-2019 12.3 (15:10) 6 (00:00) 9.2 14.72 (15:40) 8.61 (15:10) 13.6 0 0 4 9.6
05-04-2019 10.9 (19:10) 6.6 (00:00) 8.7 19.17 (16:40) 10.28 (18:10) 8.8 0 4 3.2 1.6
04-04-2019 17.6 (17:20) 5.5 (00:00) 11.6 10.56 (20:30) 6.11 (20:20) 0 0 0 0 0
03-04-2019 20.4 (17:20) 8.3 (00:00) 14.3 11.11 (18:00) 6.67 (18:50) 0 0 0 0 0
02-04-2019 18.9 (16:10) 8 (00:00) 13.4 5.83 (17:40) 3.33 (16:30) 0.2 0.2 0 0 0
01-04-2019 15.6 (17:30) 9.3 (00:00) 12.5 11.39 (18:30) 7.5 (14:50) 1.6 0.2 0 0 1.4
31-03-2019 17.6 (19:00) 10.6 (00:00) 14.1 9.17 (21:00) 6.11 (22:10) 13 0.4 4.8 0.6 7.2
30-03-2019 19 (14:40) 9.4 (00:00) 14.2 14.72 (18:50) 10 (17:10) 0 0 0 0 0
29-03-2019 18.4 (14:20) 7.2 (00:00) 12.8 15.28 (11:10) 9.17 (16:10) 0 0 0 0 0
28-03-2019 19.2 (14:40) 6.5 (00:00) 12.9 12.78 (18:20) 8.89 (18:40) 0 0 0 0 0
27-03-2019 19.7 (15:20) 7.9 (00:00) 13.8 10.83 (16:00) 7.78 (16:00) 0 0 0 0 0

Gráficas

Temp. máximas Temp. mínimas Temp. medias Precipitaciones Rachas de viento máximas Velocidades máximas media en intervalos de 10 minutos

Datos horarios

Fecha y hora oficial Temperatura (ºC) Velocidad del viento (km/h) Dirección del viento Racha (km/h) Dirección de racha Precipitación (mm) Presión (hPa) Tendencia (hPa) Humedad (%)
2019-04-25 23:00:00 12 11 Sudoeste 23 Sudoeste 0 -- -- 76
2019-04-25 22:00:00 12.6 10 Sudoeste 29 Oeste 0 -- -- 73
2019-04-25 21:00:00 13.4 15 Oeste 44 Oeste 0 -- -- 68
2019-04-25 20:00:00 15 22 Oeste 40 Oeste 0 -- -- 63
2019-04-25 19:00:00 16 19 Oeste 38 Noroeste 0 -- -- 56
2019-04-25 18:00:00 16.6 19 Oeste 43 Sudoeste 0 -- -- 59
2019-04-25 17:00:00 14.8 12 Sudoeste 21 Oeste 0 -- -- 72
2019-04-25 16:00:00 13.2 9 Sudoeste 21 Sudoeste 0 -- -- 78
2019-04-25 15:00:00 12.4 14 Sudoeste 32 Sudoeste 0 -- -- 77
2019-04-25 14:00:00 12.4 17 Sudoeste 25 Sudoeste 0 -- -- 75
2019-04-25 13:00:00 12.4 14 Oeste 28 Sudoeste 0 -- -- 73
2019-04-25 12:00:00 11.2 13 Sudoeste 29 Sudoeste 0 -- -- 83
2019-04-25 11:00:00 10.4 16 Oeste 31 Oeste 0 -- -- 92
2019-04-25 10:00:00 9.6 19 Oeste 43 Oeste 0.8 -- -- 95
2019-04-25 09:00:00 11.2 29 Sudoeste 46 Sudoeste 1 -- -- 95
2019-04-25 08:00:00 12.1 10 Sudoeste 23 Sur 3.2 -- -- 96
2019-04-25 07:00:00 12 17 Sudoeste 26 Sudoeste 2.4 -- -- 95
2019-04-25 06:00:00 12 18 Sur 31 Sudoeste 0.4 -- -- 95
2019-04-25 05:00:00 12 17 Sur 27 Sur 0.4 -- -- 94
2019-04-25 04:00:00 12.3 15 Sur 32 Sudoeste 0.2 -- -- 91
2019-04-25 03:00:00 12.5 24 Sur 34 Sur 0 -- -- 89
2019-04-25 02:00:00 12.9 18 Sur 35 Sur 0 -- -- 82
2019-04-25 01:00:00 12.9 22 Sur 36 Sur 0 -- -- 78
2019-04-25 00:00:00 12.7 26 Sur 36 Sur 0 -- -- 74
2019-04-24 23:00:00 13.1 22 Sur 34 Sur 0 -- -- 71
2019-04-24 22:00:00 13.8 24 Sur 41 Sudoeste 0 -- -- 69
2019-04-24 21:00:00 14.2 21 Sur 37 Sur 0 -- -- 68
2019-04-24 20:00:00 14.5 21 Sur 41 Sur 0 -- -- 69
2019-04-24 19:00:00 15 28 Sur 45 Sudoeste 0 -- -- 66
2019-04-24 18:00:00 16.5 30 Sudoeste 47 Sur 0 -- -- 63
2019-04-24 17:00:00 15.6 26 Sur 48 Sur 0 -- -- 66
2019-04-24 16:00:00 16.3 31 Sur 52 Sur 0 -- -- 62
2019-04-24 15:00:00 14.5 24 Sur 39 Sur 0 -- -- 70
2019-04-24 14:00:00 14.7 25 Sur 40 Sudoeste 0 -- -- 66
2019-04-24 13:00:00 14.7 22 Sur 40 Sur 0 -- -- 64
2019-04-24 12:00:00 12.5 28 Sur 37 Sur 0 -- -- 69
2019-04-24 11:00:00 11.9 26 Sur 41 Sur 0 -- -- 69
2019-04-24 10:00:00 10.5 18 Sur 29 Sur 0 -- -- 77
2019-04-24 09:00:00 8.6 8 Sur 22 Sur 0 -- -- 87
2019-04-24 08:00:00 7.6 12 Sur 18 Sudeste 0.2 -- -- 91
2019-04-24 07:00:00 7.3 9 Sur 18 Sudeste 0.2 -- -- 92
2019-04-24 06:00:00 7.1 15 Sur 21 Sur 0.2 -- -- 93
2019-04-24 05:00:00 7.4 14 Sur 17 Sudoeste 0.2 -- -- 92
2019-04-24 04:00:00 7.1 13 Sur 18 Sur 0 -- -- 90
2019-04-24 03:00:00 6.8 12 Sur 19 Sur 0 -- -- 89
2019-04-24 02:00:00 7.8 14 Sudoeste 29 Sudoeste 0 -- -- 85
2019-04-24 01:00:00 8 17 Sur 32 Sur 0 -- -- 85
2019-04-24 00:00:00 8.1 19 Sur 27 Sudoeste 0 -- -- 84
2019-04-23 23:00:00 7.9 11 Sur 21 Sudoeste 0 -- -- 84
2019-04-23 22:00:00 8.2 17 Sudoeste 32 Oeste 0 -- -- 81
2019-04-23 21:00:00 9.3 25 Sudoeste 36 Oeste 0 -- -- 71
2019-04-23 20:00:00 9.6 17 Oeste 54 Oeste 6.2 -- -- 85
2019-04-23 19:00:00 10.8 20 Sudoeste 32 Oeste 0 -- -- 71
2019-04-23 18:00:00 11 15 Oeste 36 Oeste 0 -- -- 76
2019-04-23 17:00:00 8.2 21 Oeste 52 Oeste 2.4 -- -- 88
2019-04-23 16:00:00 13.1 22 Sudoeste 35 Oeste 0 -- -- 62
2019-04-23 15:00:00 12.2 26 Sudoeste 40 Oeste 0 -- -- 59
2019-04-23 14:00:00 12.2 16 Oeste 33 Sudoeste 0 -- -- 65
2019-04-23 13:00:00 10.1 16 Sudoeste 28 Sudoeste 0 -- -- 73
2019-04-23 12:00:00 8.7 17 Sudoeste 29 Sudoeste 0 -- -- 88
2019-04-23 11:00:00 8.4 17 Sudoeste 36 Oeste 0.2 -- -- 93
2019-04-23 10:00:00 8.6 24 Sudoeste 45 Sudoeste 1.2 -- -- 93
2019-04-23 09:00:00 9.7 19 Sudoeste 29 Sudoeste 5.2 -- -- 93
2019-04-23 08:00:00 11.8 10 Sudoeste 17 Sur 0.2 -- -- 72
2019-04-23 07:00:00 12.1 8 Sur 23 Sur 0 -- -- 68
2019-04-23 06:00:00 12.4 15 Sudoeste 22 Sudoeste 0 -- -- 65
2019-04-23 05:00:00 12.4 6 Sudoeste 15 Sudoeste 0 -- -- 67
2019-04-23 04:00:00 12.4 6 Sur 10 Sudeste 0 -- -- 69
2019-04-23 03:00:00 12.6 8 Sudoeste 21 Sudoeste 0 -- -- 65
2019-04-23 02:00:00 13 18 Sudoeste 28 Sudoeste 0 -- -- 63
2019-04-23 01:00:00 13.2 12 Sudoeste 27 Sudoeste 0 -- -- 62
2019-04-23 00:00:00 13.5 2 Oeste 24 Sudoeste 0 -- -- 53
2019-04-22 23:00:00 14.4 22 Sudoeste 40 Sudoeste 0 -- -- 50
2019-04-22 22:00:00 14.9 18 Sudoeste 50 Sudoeste 0 -- -- 51
2019-04-22 21:00:00 16.4 30 Sudoeste 43 Sudoeste 0 -- -- 48
2019-04-22 20:00:00 18.4 31 Sudoeste 46 Sudoeste 0 -- -- 40
2019-04-22 19:00:00 19 23 Oeste 39 Oeste 0 -- -- 33
2019-04-22 18:00:00 20.2 24 Oeste 41 Oeste 0 -- -- 28
2019-04-22 17:00:00 19 15 Oeste 29 Noroeste 0 -- -- 37
2019-04-22 16:00:00 19.1 18 Oeste 30 Oeste 0 -- -- 37
2019-04-22 15:00:00 18.2 10 Noroeste 27 Oeste 0 -- -- 44
2019-04-22 14:00:00 17.1 13 Noroeste 30 Noroeste 0 -- -- 47
2019-04-22 13:00:00 16.5 14 Noroeste 24 Noroeste 0 -- -- 53
2019-04-22 12:00:00 14.9 10 Oeste 24 Oeste 0 -- -- 60
2019-04-22 11:00:00 12.9 7 Noroeste 15 Noroeste 0 -- -- 69
2019-04-22 10:00:00 12.4 7 Noroeste 12 Noroeste 0 -- -- 73
2019-04-22 09:00:00 10.5 6 Noroeste 10 Noroeste 0 -- -- 81
2019-04-22 08:00:00 9.4 4 Noroeste 10 Oeste 0 -- -- 85
2019-04-22 07:00:00 9.8 8 Noroeste 13 Oeste 0 -- -- 82
2019-04-22 06:00:00 9.7 7 Noroeste 14 Noroeste 0 -- -- 82
2019-04-22 05:00:00 9.9 5 Noroeste 15 Noroeste 0 -- -- 82
2019-04-22 04:00:00 10.3 10 Noroeste 16 Noroeste 0 -- -- 81
2019-04-22 03:00:00 10.4 6 Oeste 11 Oeste 0 -- -- 82
2019-04-22 02:00:00 10.6 9 Noroeste 13 Noroeste 0 -- -- 82
2019-04-22 01:00:00 11.1 5 Noroeste 9 Noroeste 0 -- -- 79
2019-04-22 00:00:00 11.5 3 Noroeste 11 Noroeste 0 -- -- 80
2019-04-21 23:00:00 11.7 7 Norte 12 Norte 0 -- -- 79
2019-04-21 22:00:00 11.8 5 Norte 9 Noroeste 0 -- -- 84
2019-04-21 21:00:00 11.7 3 Nordeste 19 Norte 0.4 -- -- 86
2019-04-21 20:00:00 13 14 Norte 22 Norte 0 -- -- 72
2019-04-21 19:00:00 13.8 9 Nordeste 18 Norte 0 -- -- 70
2019-04-21 18:00:00 14.4 10 Norte 24 Norte 0 -- -- 72
2019-04-21 17:00:00 15 16 Norte 24 Norte 0 -- -- 65
2019-04-21 16:00:00 14.5 14 Norte 25 Norte 0 -- -- 69
2019-04-21 15:00:00 14.2 11 Noroeste 23 Noroeste 0 -- -- 73
2019-04-21 14:00:00 13.2 12 Noroeste 22 Oeste 0 -- -- 78
2019-04-21 13:00:00 13.3 6 Noroeste 13 Oeste 0 -- -- 83
2019-04-21 12:00:00 12 7 Oeste 11 Oeste 0 -- -- 90
2019-04-21 11:00:00 11.1 4 Sur 7 Sur 0 -- -- 95
2019-04-21 10:00:00 10.6 3 Oeste 5 Oeste 0 -- -- 95
2019-04-21 09:00:00 10.3 0 Calma 5 Oeste 0 -- -- 95
2019-04-21 08:00:00 10.4 0 Calma 4 Noroeste 0 -- -- 96
2019-04-21 07:00:00 10.5 0 Calma 8 Oeste 0 -- -- 96
2019-04-21 06:00:00 11.1 0 Calma 5 Sudoeste 0 -- -- 96
2019-04-21 05:00:00 11.2 0 Calma 5 Norte 0 -- -- 96
2019-04-21 04:00:00 11.2 0 Calma 9 Oeste 0 -- -- 95
2019-04-21 03:00:00 11.6 3 Noroeste 5 Noroeste 0 -- -- 95
2019-04-21 02:00:00 12.1 3 Norte 7 Norte 0 -- -- 95
2019-04-21 01:00:00 12.1 2 Sur 4 Sudoeste 0.2 -- -- 95
2019-04-21 00:00:00 12.1 0 Calma 4 Sudoeste 0.4 -- -- 95
2019-04-20 23:00:00 12 3 Sudoeste 5 Sudoeste 0 -- -- 94
2019-04-20 22:00:00 11.7 2 Sur 10 Sur 1 -- -- 94
2019-04-20 21:00:00 11.8 7 Sur 21 Sur 4.2 -- -- 93
2019-04-20 20:00:00 12.8 10 Sur 19 Sur 0 -- -- 86
2019-04-20 19:00:00 13.6 10 Sur 23 Sudeste 0.4 -- -- 87
2019-04-20 18:00:00 15.8 11 Este 32 Nordeste 0 -- -- 71
2019-04-20 17:00:00 18.1 17 Norte 30 Norte 0 -- -- 53
2019-04-20 16:00:00 17.4 10 Nordeste 26 Nordeste 0 -- -- 58
2019-04-20 15:00:00 18 14 Nordeste 24 Nordeste 0 -- -- 55
2019-04-20 14:00:00 16.1 8 Norte 19 Norte 0 -- -- 61
2019-04-20 13:00:00 15 7 Nordeste 15 Nordeste 0 -- -- 68
2019-04-20 12:00:00 12.3 3 Nordeste 10 Nordeste 0 -- -- 82
2019-04-20 11:00:00 11 3 Noroeste 9 Sudoeste 0 -- -- 88
2019-04-20 10:00:00 10.1 7 Sur 12 Sur 0 -- -- 93
2019-04-20 09:00:00 8.9 3 Nordeste 12 Norte 0 -- -- 95
2019-04-20 08:00:00 8.4 5 Noroeste 8 Noroeste 0 -- -- 95
2019-04-20 07:00:00 8.7 0 Calma 4 Sudoeste 0 -- -- 95
2019-04-20 06:00:00 8 3 Noroeste 7 Nordeste 0 -- -- 94
2019-04-20 05:00:00 8.2 4 Sur 8 Sudeste 0 -- -- 93
2019-04-20 04:00:00 8.4 4 Nordeste 9 Nordeste 0 -- -- 94
2019-04-20 03:00:00 9.2 3 Sur 6 Sudoeste 0 -- -- 90
2019-04-20 02:00:00 9.1 5 Nordeste 10 Nordeste 0 -- -- 90
2019-04-20 01:00:00 10.3 0 Calma 4 Este 0 -- -- 76
2019-04-20 00:00:00 10.5 0 Calma 4 Sur 0 -- -- 76
2019-04-19 23:00:00 10.9 2 Norte 7 Sudoeste 0 -- -- 75
2019-04-19 22:00:00 11.7 7 Sudoeste 20 Sudoeste 0 -- -- 71
2019-04-19 21:00:00 11.7 14 Sur 22 Sur 0 -- -- 68
2019-04-19 20:00:00 12.5 15 Sur 32 Sur 0 -- -- 61
2019-04-19 19:00:00 15 24 Sur 32 Sur 0 -- -- 50
2019-04-19 18:00:00 15.8 10 Este 23 Norte 0 -- -- 44
2019-04-19 17:00:00 17.1 13 Norte 27 Nordeste 0 -- -- 40
2019-04-19 16:00:00 15.3 17 Nordeste 27 Nordeste 0 -- -- 56
2019-04-19 15:00:00 15.9 8 Noroeste 18 Norte 0 -- -- 59
2019-04-19 14:00:00 15.2 5 Noroeste 15 Noroeste 0 -- -- 63
2019-04-19 13:00:00 13.7 7 Noroeste 13 Noroeste 0 -- -- 67
2019-04-19 12:00:00 12.8 6 Norte 12 Nordeste 0 -- -- 72
2019-04-19 11:00:00 11.3 3 Norte 12 Nordeste 0 -- -- 84
2019-04-19 10:00:00 10 6 Nordeste 9 Nordeste 0 -- -- 92
2019-04-19 09:00:00 8.8 2 Este 8 Nordeste 0 -- -- 94
2019-04-19 08:00:00 7.6 4 Nordeste 10 Nordeste 0 -- -- 95
2019-04-19 07:00:00 7.9 3 Nordeste 9 Nordeste 0 -- -- 94
2019-04-19 06:00:00 7.9 4 Este 10 Sudeste 0.2 -- -- 94
2019-04-19 05:00:00 8.5 3 Sur 12 Este 0 -- -- 95
2019-04-19 04:00:00 8.4 0 Calma 5 Sur 0 -- -- 95
2019-04-19 03:00:00 8.4 4 Norte 9 Sudeste 0 -- -- 94
2019-04-19 02:00:00 8.6 8 Sudeste 15 Sudeste 0 -- -- 94
2019-04-19 01:00:00 8.5 8 Sudeste 9 Este 0 -- -- 94
2019-04-19 00:00:00 8.5 3 Este 9 Sudoeste 0 -- -- 94
2019-04-18 23:00:00 8.7 7 Sur 14 Sur 0 -- -- 94
2019-04-18 22:00:00 9.2 8 Sudeste 12 Sur 0 -- -- 94
2019-04-18 21:00:00 9.5 5 Este 18 Noroeste 0.4 -- -- 94
2019-04-18 20:00:00 9.4 12 Oeste 22 Oeste 3.4 -- -- 93
2019-04-18 19:00:00 10.2 5 Nordeste 36 Sudoeste 2 -- -- 91
2019-04-18 18:00:00 11.8 9 Sudeste 25 Noroeste 4.2 -- -- 82
2019-04-18 17:00:00 14.4 12 Noroeste 28 Noroeste 0 -- -- 58
2019-04-18 16:00:00 14.7 6 Oeste 15 Oeste 0 -- -- 60
2019-04-18 15:00:00 13.8 8 Nordeste 17 Norte 0 -- -- 64
2019-04-18 14:00:00 13.2 10 Nordeste 14 Norte 1 -- -- 79
2019-04-18 13:00:00 14 12 Sudeste 20 Oeste 0 -- -- 64
2019-04-18 12:00:00 14.8 12 Oeste 22 Oeste 0 -- -- 61
2019-04-18 11:00:00 12.7 7 Sudoeste 10 Sudoeste 0 -- -- 71
2019-04-18 10:00:00 12.9 2 Norte 6 Nordeste 0 -- -- 79
2019-04-18 09:00:00 10.6 2 Oeste 4 Noroeste 0 -- -- 90
2019-04-18 08:00:00 10.7 0 Calma 8 Sudoeste 0.6 -- -- 90
2019-04-18 07:00:00 11 3 Noroeste 16 Sudeste 0.2 -- -- 85
2019-04-18 06:00:00 11.4 12 Este 21 Este 0 -- -- 76
2019-04-18 05:00:00 12 3 Este 11 Noroeste 0 -- -- 64
2019-04-18 04:00:00 12.4 7 Oeste 14 Noroeste 0 -- -- 61
2019-04-18 03:00:00 12.3 13 Oeste 20 Oeste 0 -- -- 71
2019-04-18 02:00:00 12.5 9 Este 23 Este 0 -- -- 69
2019-04-18 01:00:00 12.8 6 Este 18 Este 0 -- -- 62
2019-04-18 00:00:00 12.9 5 Sudeste 17 Oeste 0 -- -- 60
2019-04-17 23:00:00 13 11 Oeste 27 Sudoeste 0 -- -- 57
2019-04-17 22:00:00 13.5 13 Oeste 28 Oeste 0 -- -- 60
2019-04-17 21:00:00 15.3 16 Sudoeste 34 Sudoeste 0 -- -- 54
2019-04-17 20:00:00 15.7 18 Sudoeste 35 Sudoeste 0 -- -- 54
2019-04-17 19:00:00 16.2 26 Sudoeste 38 Sur 0 -- -- 52
2019-04-17 18:00:00 16.7 20 Sudoeste 41 Sudoeste 0 -- -- 55
2019-04-17 17:00:00 18.4 29 Sudoeste 44 Sudoeste 0 -- -- 49
2019-04-17 16:00:00 19.8 27 Sudoeste 57 Sudeste 0 -- -- 41
2019-04-17 15:00:00 21.7 40 Sur 56 Sudeste 0 -- -- 33
2019-04-17 14:00:00 21.4 38 Sur 58 Sur 0 -- -- 32
2019-04-17 13:00:00 20.7 37 Sur 58 Sur 0 -- -- 32
2019-04-17 12:00:00 21.2 29 Sur 46 Sudeste 0 -- -- 26
2019-04-17 11:00:00 19.5 23 Sur 49 Sur 0 -- -- 29
2019-04-17 10:00:00 18.8 36 Sur 49 Sudeste 0 -- -- 27
2019-04-17 09:00:00 17.1 32 Sur 49 Sur 0 -- -- 31
2019-04-17 08:00:00 15.9 23 Sur 33 Sur 0 -- -- 29
2019-04-17 07:00:00 16.2 21 Sur 35 Sur 0 -- -- 29
2019-04-17 06:00:00 16 16 Sudeste 32 Sudeste 0 -- -- 30
2019-04-17 05:00:00 15.4 19 Sur 30 Sur 0 -- -- 34
2019-04-17 04:00:00 14.3 16 Sur 31 Sur 0 -- -- 40
2019-04-17 03:00:00 14.6 19 Sudeste 46 Sur 0 -- -- 42
2019-04-17 02:00:00 15 29 Sur 49 Sur 0 -- -- 42
2019-04-17 01:00:00 15 28 Sur 42 Sur 0 -- -- 45
2019-04-17 00:00:00 15.3 24 Sur 36 Sur 0 -- -- 47
2019-04-16 23:00:00 16.2 20 Sur 30 Sur 0 -- -- 32
2019-04-16 22:00:00 17.1 22 Sur 38 Sur 0 -- -- 23
2019-04-16 21:00:00 19.1 23 Sur 32 Sur 0 -- -- 20
2019-04-16 20:00:00 22.4 18 Sur 32 Sur 0 -- -- 22
2019-04-16 19:00:00 23.9 19 Sur 32 Sur 0 -- -- 16
2019-04-16 18:00:00 24.1 19 Sudeste 34 Sur 0 -- -- 14
2019-04-16 17:00:00 24.3 19 Sur 37 Sur 0 -- -- 17
2019-04-16 16:00:00 24.3 18 Sur 32 Sur 0 -- -- 19
2019-04-16 15:00:00 23.7 22 Sur 34 Sur 0 -- -- 22
2019-04-16 14:00:00 22.4 5 Sur 20 Sudeste 0 -- -- 33
2019-04-16 13:00:00 20.5 3 Norte 14 Norte 0 -- -- 40
2019-04-16 12:00:00 18.6 6 Nordeste 13 Nordeste 0 -- -- 48
2019-04-16 11:00:00 16.2 6 Nordeste 15 Nordeste 0 -- -- 60
2019-04-16 10:00:00 13.8 4 Oeste 9 Noroeste 0 -- -- 74
2019-04-16 09:00:00 12.2 0 Calma 6 Nordeste 0 -- -- 88
2019-04-16 08:00:00 10.9 4 Este 6 Nordeste 0 -- -- 89
2019-04-16 07:00:00 11.2 4 Nordeste 6 Nordeste 0 -- -- 85
2019-04-16 06:00:00 11.3 6 Nordeste 11 Norte 0 -- -- 84
2019-04-16 05:00:00 11.9 8 Norte 10 Norte 0 -- -- 81
2019-04-16 04:00:00 12.2 3 Norte 6 Norte 0 -- -- 75
2019-04-16 03:00:00 12.7 5 Norte 6 Norte 0 -- -- 73
2019-04-16 02:00:00 13.6 3 Oeste 6 Oeste 0 -- -- 67
2019-04-16 01:00:00 13.8 2 Oeste 14 Sudoeste 0 -- -- 68
2019-04-16 00:00:00 14.3 5 Oeste 22 Oeste 0 -- -- 65
2019-04-15 23:00:00 15.2 13 Oeste 30 Sudoeste 0 -- -- 60
2019-04-15 22:00:00 16.4 21 Oeste 39 Oeste 0 -- -- 51
2019-04-15 21:00:00 18.4 22 Oeste 36 Oeste 0 -- -- 38
2019-04-15 20:00:00 21.2 24 Oeste 36 Oeste 0 -- -- 27
2019-04-15 19:00:00 23 26 Oeste 48 Oeste 0 -- -- 18
2019-04-15 18:00:00 24.7 27 Sudoeste 46 Oeste 0 -- -- 18
2019-04-15 17:00:00 25.7 25 Oeste 48 Sudoeste 0 -- -- 16
2019-04-15 16:00:00 25.2 27 Noroeste 57 Oeste 0 -- -- 24
2019-04-15 15:00:00 26.5 16 Sur 30 Sur 0 -- -- 16
2019-04-15 14:00:00 25.4 14 Oeste 27 Oeste 0 -- -- 17
2019-04-15 13:00:00 24.3 17 Sudoeste 28 Sudoeste 0 -- -- 19
2019-04-15 12:00:00 22.9 11 Sur 24 Sur 0 -- -- 20
2019-04-15 11:00:00 18.3 8 Este 10 Este 0 -- -- 46
2019-04-15 10:00:00 18.6 4 Este 6 Nordeste 0 -- -- 46
2019-04-15 09:00:00 15.9 0 Calma 8 Este 0 -- -- 50
2019-04-15 08:00:00 15 8 Este 18 Este 0 -- -- 54
2019-04-15 07:00:00 14.8 12 Nordeste 17 Nordeste 0 -- -- 57
2019-04-15 06:00:00 15.1 11 Este 15 Este 0 -- -- 57
2019-04-15 05:00:00 14.8 10 Nordeste 13 Este 0 -- -- 61
2019-04-15 04:00:00 15.2 12 Nordeste 14 Nordeste 0 -- -- 60
2019-04-15 03:00:00 15.7 9 Nordeste 13 Nordeste 0 -- -- 57
2019-04-15 02:00:00 17.1 8 Nordeste 11 Este 0 -- -- 52
2019-04-15 01:00:00 18 8 Este 11 Este 0 -- -- 47
2019-04-15 00:00:00 19.4 7 Este 8 Este 0 -- -- 41
2019-04-14 23:00:00 19.9 5 Este 7 Este 0 -- -- 39
2019-04-14 22:00:00 19.9 4 Norte 8 Noroeste 0 -- -- 40
2019-04-14 21:00:00 20.5 6 Noroeste 14 Oeste 0 -- -- 39
2019-04-14 20:00:00 22.2 10 Noroeste 18 Noroeste 0 -- -- 33
2019-04-14 19:00:00 23.2 10 Noroeste 22 Noroeste 0 -- -- 31
2019-04-14 18:00:00 23.5 12 Noroeste 19 Oeste 0 -- -- 28
2019-04-14 17:00:00 24.8 10 Noroeste 22 Noroeste 0 -- -- 25
2019-04-14 16:00:00 24.4 6 Noroeste 18 Oeste 0 -- -- 27
2019-04-14 15:00:00 23.2 9 Noroeste 17 Noroeste 0 -- -- 27
2019-04-14 14:00:00 22.5 7 Noroeste 13 Sudoeste 0 -- -- 26
2019-04-14 13:00:00 21.3 4 Sur 11 Oeste 0 -- -- 29
2019-04-14 12:00:00 19.5 4 Nordeste 9 Nordeste 0 -- -- 35
2019-04-14 11:00:00 16.6 4 Nordeste 10 Nordeste 0 -- -- 44
2019-04-14 10:00:00 13.3 5 Nordeste 9 Nordeste 0 -- -- 55
2019-04-14 09:00:00 10.5 5 Este 13 Nordeste 0 -- -- 67
2019-04-14 08:00:00 9.6 10 Nordeste 13 Nordeste 0 -- -- 69
2019-04-14 07:00:00 9.7 8 Nordeste 10 Nordeste 0 -- -- 69
2019-04-14 06:00:00 10.7 8 Este 12 Este 0 -- -- 60
2019-04-14 05:00:00 11.8 8 Este 12 Este 0 -- -- 52
2019-04-14 04:00:00 12.8 6 Este 10 Este 0 -- -- 48
2019-04-14 03:00:00 12.6 5 Este 7 Este 0 -- -- 48
2019-04-14 02:00:00 13.3 3 Norte 5 Sur 0 -- -- 46
2019-04-14 01:00:00 13.6 6 Sudoeste 9 Oeste 0 -- -- 45
2019-04-14 00:00:00 14.6 7 Oeste 18 Oeste 0 -- -- 42
2019-04-13 23:00:00 16 4 Noroeste 8 Noroeste 0 -- -- 30
2019-04-13 22:00:00 17.2 4 Oeste 8 Oeste 0 -- -- 27
2019-04-13 21:00:00 18.2 8 Noroeste 17 Noroeste 0 -- -- 26
2019-04-13 20:00:00 20.6 10 Noroeste 24 Noroeste 0 -- -- 22
2019-04-13 19:00:00 21 14 Noroeste 25 Noroeste 0 -- -- 21
2019-04-13 18:00:00 21.9 10 Noroeste 24 Noroeste 0 -- -- 20
2019-04-13 17:00:00 21.7 12 Noroeste 24 Oeste 0 -- -- 19
2019-04-13 16:00:00 20.9 10 Noroeste 24 Noroeste 0 -- -- 21
2019-04-13 15:00:00 20.5 10 Noroeste 21 Noroeste 0 -- -- 20
2019-04-13 14:00:00 19.8 9 Noroeste 24 Noroeste 0 -- -- 20
2019-04-13 13:00:00 18.9 10 Noroeste 22 Noroeste 0 -- -- 22
2019-04-13 12:00:00 17.5 3 Nordeste 9 Norte 0 -- -- 35
2019-04-13 11:00:00 14.8 3 Nordeste 12 Este 0 -- -- 44
2019-04-13 10:00:00 11.2 6 Nordeste 13 Nordeste 0 -- -- 59
2019-04-13 09:00:00 8.6 8 Nordeste 13 Nordeste 0 -- -- 72
2019-04-13 08:00:00 7.3 7 Nordeste 15 Nordeste 0 -- -- 75
2019-04-13 07:00:00 7.5 10 Nordeste 13 Nordeste 0 -- -- 73
2019-04-13 06:00:00 9.4 7 Este 11 Este 0 -- -- 56
2019-04-13 05:00:00 10 4 Sudeste 8 Sur 0 -- -- 52
2019-04-13 04:00:00 10.8 5 Sur 7 Sur 0 -- -- 49
2019-04-13 03:00:00 10.5 5 Sudeste 8 Sudeste 0 -- -- 51
2019-04-13 02:00:00 11.3 8 Este 9 Nordeste 0 -- -- 47
2019-04-13 01:00:00 12.3 0 Calma 8 Sudoeste 0 -- -- 41
2019-04-13 00:00:00 13.6 3 Este 5 Nordeste 0 -- -- 38
2019-04-12 23:00:00 14.6 3 Noroeste 6 Oeste 0 -- -- 31
2019-04-12 22:00:00 15.4 2 Sudoeste 5 Noroeste 0 -- -- 29
2019-04-12 21:00:00 16.8 4 Noroeste 17 Noroeste 0 -- -- 27
2019-04-12 20:00:00 18.4 8 Noroeste 20 Noroeste 0 -- -- 25
2019-04-12 19:00:00 19.2 11 Noroeste 24 Noroeste 0 -- -- 21
2019-04-12 18:00:00 19.7 10 Noroeste 23 Noroeste 0 -- -- 21
2019-04-12 17:00:00 19.1 9 Norte 23 Noroeste 0 -- -- 23
2019-04-12 16:00:00 19.4 9 Noroeste 23 Noroeste 0 -- -- 23
2019-04-12 15:00:00 18.8 8 Norte 21 Noroeste 0 -- -- 26
2019-04-12 14:00:00 18.2 8 Oeste 26 Noroeste 0 -- -- 27
2019-04-12 13:00:00 17.4 11 Noroeste 21 Noroeste 0 -- -- 26
2019-04-12 12:00:00 15.9 4 Norte 8 Norte 0 -- -- 43
2019-04-12 11:00:00 13.5 3 Noroeste 8 Nordeste 0 -- -- 58
2019-04-12 10:00:00 10.3 6 Nordeste 9 Nordeste 0 -- -- 71
2019-04-12 09:00:00 7.7 3 Este 10 Nordeste 0 -- -- 84
2019-04-12 08:00:00 6.9 6 Este 13 Este 0 -- -- 84
2019-04-12 07:00:00 7.3 10 Nordeste 12 Nordeste 0 -- -- 78
2019-04-12 06:00:00 7.9 3 Este 8 Nordeste 0 -- -- 74
2019-04-12 05:00:00 8.6 7 Este 9 Nordeste 0 -- -- 72
2019-04-12 04:00:00 9.7 4 Sudeste 6 Este 0 -- -- 63
2019-04-12 03:00:00 10.3 4 Sudeste 9 Sudeste 0 -- -- 60
2019-04-12 02:00:00 10.4 7 Este 10 Este 0 -- -- 59
2019-04-12 01:00:00 11.2 3 Noroeste 12 Oeste 0 -- -- 54
2019-04-12 00:00:00 12.8 5 Nordeste 6 Nordeste 0 -- -- 46
2019-04-11 23:00:00 13 5 Nordeste 10 Este 0 -- -- 46
2019-04-11 22:00:00 13.6 5 Noroeste 11 Noroeste 0 -- -- 42
2019-04-11 21:00:00 14.5 7 Noroeste 20 Noroeste 0 -- -- 39
2019-04-11 20:00:00 16.7 13 Noroeste 23 Noroeste 0 -- -- 33
2019-04-11 19:00:00 17.2 12 Noroeste 30 Noroeste 0 -- -- 30
2019-04-11 18:00:00 18.1 10 Norte 29 Norte 0 -- -- 28
2019-04-11 17:00:00 17.1 17 Noroeste 28 Norte 0 -- -- 29
2019-04-11 16:00:00 16.9 15 Noroeste 31 Noroeste 0 -- -- 36
2019-04-11 15:00:00 16.3 15 Noroeste 27 Noroeste 0 -- -- 46
2019-04-11 14:00:00 15.7 14 Noroeste 26 Noroeste 0 -- -- 55
2019-04-11 13:00:00 14.8 10 Noroeste 18 Norte 0 -- -- 59
2019-04-11 12:00:00 13.4 6 Noroeste 12 Norte 0 -- -- 67
2019-04-11 11:00:00 11.8 2 Norte 8 Nordeste 0 -- -- 71
2019-04-11 10:00:00 10.1 3 Norte 7 Noroeste 0 -- -- 77
2019-04-11 09:00:00 8.1 2 Norte 8 Sur 0 -- -- 86
2019-04-11 08:00:00 6.8 6 Sur 8 Sur 0 -- -- 85
2019-04-11 07:00:00 6.7 6 Sur 10 Sudeste 0 -- -- 84
2019-04-11 06:00:00 6.9 8 Sur 12 Sur 0 -- -- 83
2019-04-11 05:00:00 7.9 4 Sur 7 Oeste 0 -- -- 80
2019-04-11 04:00:00 8.3 5 Sudoeste 11 Oeste 0 -- -- 77
2019-04-11 03:00:00 9.4 5 Oeste 9 Noroeste 0 -- -- 71
2019-04-11 02:00:00 9.7 5 Noroeste 16 Oeste 0 -- -- 70
2019-04-11 01:00:00 10.5 12 Oeste 19 Noroeste 0 -- -- 66
2019-04-11 00:00:00 11 11 Oeste 16 Noroeste 0 -- -- 64
2019-04-10 23:00:00 12 9 Noroeste 21 Oeste 0 -- -- 62
2019-04-10 22:00:00 12.7 11 Oeste 16 Oeste 0 -- -- 59
2019-04-10 21:00:00 13.3 9 Oeste 22 Oeste 0 -- -- 55
2019-04-10 20:00:00 14.8 13 Oeste 29 Oeste 0 -- -- 53
2019-04-10 19:00:00 15.4 18 Oeste 38 Oeste 0 -- -- 54
2019-04-10 18:00:00 15.3 18 Oeste 32 Oeste 0 -- -- 54
2019-04-10 17:00:00 13.9 14 Oeste 32 Oeste 0 -- -- 60
2019-04-10 16:00:00 13 18 Noroeste 29 Noroeste 0 -- -- 61
2019-04-10 15:00:00 12 12 Noroeste 23 Oeste 0 -- -- 64
2019-04-10 14:00:00 10.9 14 Noroeste 24 Noroeste 0 -- -- 73
2019-04-10 13:00:00 10.5 12 Noroeste 25 Noroeste 0 -- -- 75
2019-04-10 12:00:00 9.7 14 Noroeste 23 Noroeste 0 -- -- 80
2019-04-10 11:00:00 8.8 11 Oeste 21 Oeste 0 -- -- 85
2019-04-10 10:00:00 7.9 9 Oeste 26 Oeste 0 -- -- 90
2019-04-10 09:00:00 7.2 9 Oeste 15 Oeste 0 -- -- 94
2019-04-10 08:00:00 6.8 4 Oeste 10 Oeste 0 -- -- 93
2019-04-10 07:00:00 7.2 8 Oeste 12 Noroeste 0 -- -- 93
2019-04-10 06:00:00 7.5 3 Oeste 11 Noroeste 0 -- -- 93
2019-04-10 05:00:00 8 8 Noroeste 15 Noroeste 0 -- -- 93
2019-04-10 04:00:00 8.8 11 Noroeste 18 Oeste 0 -- -- 91
2019-04-10 03:00:00 9.4 12 Oeste 19 Oeste 0 -- -- 89
2019-04-10 02:00:00 9.5 6 Oeste 19 Oeste 0 -- -- 92
2019-04-10 01:00:00 9.4 13 Sudoeste 18 Sudoeste 0 -- -- 92
2019-04-10 00:00:00 9.3 5 Sudoeste 19 Sudoeste 0 -- -- 91
2019-04-09 23:00:00 9.8 8 Oeste 27 Noroeste 2 -- -- 92
2019-04-09 22:00:00 10.5 8 Noroeste 26 Oeste 0.6 -- -- 89
2019-04-09 21:00:00 10.7 8 Noroeste 32 Oeste 0.8 -- -- 88
2019-04-09 20:00:00 13.4 18 Oeste 33 Oeste 0 -- -- 64
2019-04-09 19:00:00 13.5 21 Oeste 41 Sudoeste 0 -- -- 65
2019-04-09 18:00:00 14.2 23 Oeste 35 Oeste 0 -- -- 58
2019-04-09 17:00:00 14.6 23 Oeste 45 Oeste 0 -- -- 56
2019-04-09 16:00:00 14 26 Oeste 41 Oeste 0 -- -- 57
2019-04-09 15:00:00 14.5 27 Oeste 44 Sudoeste 0 -- -- 58
2019-04-09 14:00:00 13.4 25 Sudoeste 40 Sudoeste 0 -- -- 67
2019-04-09 13:00:00 11.7 22 Oeste 35 Oeste 0 -- -- 75
2019-04-09 12:00:00 10.2 3 Norte 21 Oeste 0 -- -- 91
2019-04-09 11:00:00 9.5 6 Sudoeste 14 Sudoeste 0.2 -- -- 92
2019-04-09 10:00:00 7.9 2 Este 6 Norte 0 -- -- 95
2019-04-09 09:00:00 7.3 2 Sudoeste 9 Oeste 0 -- -- 95
2019-04-09 08:00:00 6.5 4 Sudoeste 9 Sudoeste 0 -- -- 93
2019-04-09 07:00:00 6.5 6 Sudoeste 13 Oeste 0 -- -- 92
2019-04-09 06:00:00 7 8 Oeste 13 Oeste 0 -- -- 92
2019-04-09 05:00:00 8 4 Oeste 13 Oeste 0 -- -- 90
2019-04-09 04:00:00 8.8 10 Oeste 24 Oeste 0 -- -- 89
2019-04-09 03:00:00 9.7 13 Oeste 22 Oeste 0 -- -- 88
2019-04-09 02:00:00 9.9 9 Sudoeste 31 Sudoeste 0 -- -- 90
2019-04-09 01:00:00 9.9 18 Sudoeste 24 Sudoeste 0 -- -- 89
2019-04-09 00:00:00 10.4 15 Sudoeste 28 Sudoeste 0 -- -- 86
2019-04-08 23:00:00 10.7 18 Sudoeste 30 Sudoeste 0 -- -- 85
2019-04-08 22:00:00 11.1 15 Sudoeste 27 Sudoeste 0 -- -- 87
2019-04-08 21:00:00 11.7 15 Sudoeste 35 Sudoeste 0 -- -- 87
2019-04-08 20:00:00 12.3 25 Sudoeste 40 Sudoeste 0 -- -- 85
2019-04-08 19:00:00 12.6 19 Sudoeste 36 Sudoeste 0.2 -- -- 92
2019-04-08 18:00:00 12.9 26 Sudoeste 51 Sudoeste 0 -- -- 88
2019-04-08 17:00:00 13.7 22 Sudoeste 48 Sudoeste 0.4 -- -- 84
2019-04-08 16:00:00 13.7 25 Sudoeste 49 Sudoeste 0 -- -- 81
2019-04-08 15:00:00 13 20 Oeste 28 Sudoeste 0.6 -- -- 87
2019-04-08 14:00:00 13.6 13 Oeste 31 Oeste 0 -- -- 82
2019-04-08 13:00:00 12.7 17 Sudoeste 27 Sudoeste 0.2 -- -- 83
2019-04-08 12:00:00 12.5 14 Sudoeste 25 Sudoeste 0 -- -- 86
2019-04-08 11:00:00 12.3 10 Sudoeste 18 Sudoeste 0 -- -- 89
2019-04-08 10:00:00 11.7 7 Sudoeste 14 Sudoeste 0 -- -- 93
2019-04-08 09:00:00 10.9 12 Sudoeste 18 Sudoeste 0 -- -- 95
2019-04-08 08:00:00 9.9 6 Sur 14 Sur 0 -- -- 95
2019-04-08 07:00:00 10.3 10 Sur 15 Sur 0 -- -- 95
2019-04-08 06:00:00 10.5 5 Sur 23 Sudoeste 0 -- -- 95
2019-04-08 05:00:00 10.5 8 Sur 17 Sudoeste 0 -- -- 95
2019-04-08 04:00:00 11 13 Sudoeste 23 Sudoeste 0 -- -- 94
2019-04-08 03:00:00 11.1 10 Sudoeste 20 Sudoeste 0 -- -- 94
2019-04-08 02:00:00 11.2 9 Sudoeste 26 Sudoeste 0 -- -- 95
2019-04-08 01:00:00 11.3 8 Sudoeste 32 Oeste 0 -- -- 95
2019-04-08 00:00:00 11.7 20 Sudoeste 35 Sudoeste 0 -- -- 95
2019-04-07 23:00:00 12 23 Sudoeste 39 Oeste 0.4 -- -- 95
2019-04-07 22:00:00 11.2 20 Sur 28 Sur 0.6 -- -- 96
2019-04-07 21:00:00 10.9 10 Sur 16 Sur 3 -- -- 95
2019-04-07 20:00:00 11.1 9 Sur 15 Sur 0.6 -- -- 94
2019-04-07 19:00:00 11.2 10 Sudoeste 15 Sudoeste 0.4 -- -- 93
2019-04-07 18:00:00 11 7 Oeste 13 Oeste 0 -- -- 93
2019-04-07 17:00:00 10.6 9 Noroeste 23 Oeste 1.4 -- -- 93
2019-04-07 16:00:00 11.8 15 Oeste 33 Sudoeste 0 -- -- 80
2019-04-07 15:00:00 12 15 Oeste 33 Oeste 0 -- -- 78
2019-04-07 14:00:00 11 19 Oeste 30 Oeste 0 -- -- 78
2019-04-07 13:00:00 10.2 20 Oeste 32 Oeste 0 -- -- 80
2019-04-07 12:00:00 9.6 14 Oeste 27 Oeste 0 -- -- 87
2019-04-07 11:00:00 9.2 11 Oeste 19 Oeste 0 -- -- 92
2019-04-07 10:00:00 8.1 7 Oeste 17 Oeste 0.2 -- -- 95
2019-04-07 09:00:00 7.6 5 Oeste 15 Sudoeste 0 -- -- 95
2019-04-07 08:00:00 7.3 12 Sudoeste 19 Oeste 0.2 -- -- 94
2019-04-07 07:00:00 7.5 11 Sudoeste 21 Sudoeste 0 -- -- 92
2019-04-07 06:00:00 7.3 16 Oeste 27 Oeste 0 -- -- 91
2019-04-07 05:00:00 7.5 17 Oeste 29 Sudoeste 0 -- -- 90
2019-04-07 04:00:00 7.5 19 Sudoeste 37 Oeste 0 -- -- 91
2019-04-07 03:00:00 7.5 19 Oeste 34 Sudoeste 0 -- -- 91
2019-04-07 02:00:00 7.3 20 Sudoeste 32 Sudoeste 0 -- -- 90
2019-04-07 01:00:00 7.6 19 Sudoeste 37 Oeste 0.2 -- -- 91
2019-04-07 00:00:00 7.7 19 Oeste 38 Sudoeste 0 -- -- 94
2019-04-06 23:00:00 7.3 14 Oeste 34 Oeste 2.6 -- -- 94
2019-04-06 22:00:00 7.1 24 Oeste 43 Oeste 5 -- -- 93
2019-04-06 21:00:00 7.5 18 Oeste 39 Sudoeste 0 -- -- 89
2019-04-06 20:00:00 7.4 15 Sudoeste 45 Oeste 1.4 -- -- 93
2019-04-06 19:00:00 8.3 23 Sudoeste 40 Sudoeste 0.6 -- -- 89
2019-04-06 18:00:00 8 21 Sudoeste 45 Oeste 1.8 -- -- 92
2019-04-06 17:00:00 7.2 15 Oeste 46 Noroeste 2.2 -- -- 90
2019-04-06 16:00:00 11.7 28 Oeste 53 Sudoeste 0 -- -- 61
2019-04-06 15:00:00 11.9 27 Sudoeste 39 Oeste 0 -- -- 64
2019-04-06 14:00:00 11.7 25 Oeste 39 Oeste 0 -- -- 62
2019-04-06 13:00:00 10.7 24 Oeste 43 Oeste 0 -- -- 71
2019-04-06 12:00:00 9.3 22 Oeste 35 Oeste 0 -- -- 75
2019-04-06 11:00:00 8.1 17 Sur 28 Sur 0 -- -- 82
2019-04-06 10:00:00 8.2 15 Sudoeste 21 Sur 0 -- -- 85
2019-04-06 09:00:00 7.1 11 Sudoeste 23 Sudoeste 0 -- -- 87
2019-04-06 08:00:00 6.7 13 Sudoeste 26 Sudoeste 0 -- -- 87
2019-04-06 07:00:00 6.8 17 Oeste 29 Oeste 0 -- -- 87
2019-04-06 06:00:00 6.7 16 Sudoeste 25 Sudoeste 0 -- -- 86
2019-04-06 05:00:00 6.5 16 Sudoeste 27 Sudoeste 0 -- -- 86
2019-04-06 04:00:00 6.5 15 Sudoeste 24 Sudoeste 0 -- -- 85
2019-04-06 03:00:00 6.4 12 Sudoeste 25 Oeste 0 -- -- 85
2019-04-06 02:00:00 6 19 Oeste 30 Oeste 0 -- -- 85
2019-04-06 01:00:00 6.3 18 Sudoeste 32 Oeste 0 -- -- 85
2019-04-06 00:00:00 6.6 17 Sudoeste 29 Sudoeste 0 -- -- 85
2019-04-05 23:00:00 6.9 12 Sudoeste 29 Sudoeste 1.6 -- -- 86
2019-04-05 22:00:00 7.7 10 Sudoeste 26 Sudoeste 0 -- -- 78
2019-04-05 21:00:00 8.1 18 Sudoeste 44 Sudoeste 0 -- -- 71
2019-04-05 20:00:00 9.9 22 Oeste 49 Oeste 0 -- -- 59
2019-04-05 19:00:00 10.8 31 Oeste 52 Oeste 0 -- -- 52
2019-04-05 18:00:00 9.8 34 Oeste 54 Oeste 0 -- -- 58
2019-04-05 17:00:00 7.1 30 Sudoeste 69 Sudoeste 0 -- -- 83
2019-04-05 16:00:00 10.3 26 Oeste 44 Oeste 0 -- -- 68
2019-04-05 15:00:00 9.7 25 Oeste 39 Oeste 0.6 -- -- 80
2019-04-05 14:00:00 8.1 12 Sur 23 Sudoeste 0.4 -- -- 93
2019-04-05 13:00:00 7.3 15 Sudoeste 35 Sudoeste 2.2 -- -- 92
2019-04-05 12:00:00 8.5 8 Sur 18 Sur 0.2 -- -- 91
2019-04-05 11:00:00 7.8 15 Sur 31 Sur 0.6 -- -- 92
2019-04-05 10:00:00 7.5 15 Sur 22 Sudeste 2.4 -- -- 92
2019-04-05 09:00:00 7.9 14 Sur 22 Sur 0.6 -- -- 83
2019-04-05 08:00:00 8.1 12 Sur 19 Sudoeste 0.2 -- -- 74
2019-04-05 07:00:00 8.8 7 Sudeste 18 Sudoeste 0 -- -- 62
2019-04-05 06:00:00 9 12 Sudoeste 22 Sur 0 -- -- 61
2019-04-05 05:00:00 9 4 Sudoeste 17 Oeste 0 -- -- 58
2019-04-05 04:00:00 8.8 3 Sur 21 Oeste 0 -- -- 56
2019-04-05 03:00:00 8.6 12 Sudoeste 21 Sudoeste 0 -- -- 59
2019-04-05 02:00:00 8.6 10 Sur 26 Sudoeste 0 -- -- 51
2019-04-05 01:00:00 8.3 12 Sur 24 Sudoeste 0 -- -- 48
2019-04-05 00:00:00 9.2 13 Sudoeste 22 Oeste 0 -- -- 40
2019-04-04 23:00:00 9.8 9 Sudoeste 22 Sudoeste 0 -- -- 42
2019-04-04 22:00:00 11.3 18 Sudoeste 31 Oeste 0 -- -- 33
2019-04-04 21:00:00 12.7 20 Oeste 38 Oeste 0 -- -- 34
2019-04-04 20:00:00 15.5 22 Oeste 33 Oeste 0 -- -- 29
2019-04-04 19:00:00 16.7 17 Oeste 32 Sudoeste 0 -- -- 24
2019-04-04 18:00:00 17.3 18 Oeste 32 Oeste 0 -- -- 22
2019-04-04 17:00:00 17.2 17 Oeste 33 Oeste 0 -- -- 24
2019-04-04 16:00:00 16.9 17 Sudoeste 32 Oeste 0 -- -- 25
2019-04-04 15:00:00 16 17 Noroeste 35 Oeste 0 -- -- 23
2019-04-04 14:00:00 15.3 13 Sudoeste 32 Oeste 0 -- -- 27
2019-04-04 13:00:00 14.4 12 Sur 22 Sur 0 -- -- 32
2019-04-04 12:00:00 12.2 5 Sur 13 Sudoeste 0 -- -- 37
2019-04-04 11:00:00 9.8 5 Sudoeste 13 Noroeste 0 -- -- 40
2019-04-04 10:00:00 8.4 7 Noroeste 16 Oeste 0 -- -- 48
2019-04-04 09:00:00 6.1 4 Oeste 8 Oeste 0 -- -- 59
2019-04-04 08:00:00 5.9 4 Sudoeste 7 Oeste 0 -- -- 61
2019-04-04 07:00:00 6.6 5 Oeste 12 Oeste 0 -- -- 67
2019-04-04 06:00:00 7.1 4 Oeste 9 Noroeste 0 -- -- 64
2019-04-04 05:00:00 7.7 5 Noroeste 7 Noroeste 0 -- -- 63
2019-04-04 04:00:00 8.4 5 Noroeste 11 Noroeste 0 -- -- 62
2019-04-04 03:00:00 9.3 6 Noroeste 12 Noroeste 0 -- -- 57
2019-04-04 02:00:00 10.3 5 Noroeste 8 Noroeste 0 -- -- 53
2019-04-04 01:00:00 10.6 2 Sur 17 Oeste 0 -- -- 52
2019-04-04 00:00:00 11.9 9 Oeste 19 Oeste 0 -- -- 48
2019-04-03 23:00:00 12.9 13 Sudoeste 17 Sudoeste 0 -- -- 48
2019-04-03 22:00:00 14 10 Sudoeste 23 Sudoeste 0 -- -- 45
2019-04-03 21:00:00 15.8 14 Oeste 32 Noroeste 0 -- -- 36
2019-04-03 20:00:00 18 23 Oeste 40 Oeste 0 -- -- 30
2019-04-03 19:00:00 19 24 Oeste 38 Oeste 0 -- -- 28
2019-04-03 18:00:00 19.8 22 Oeste 40 Oeste 0 -- -- 29
2019-04-03 17:00:00 20.1 19 Oeste 36 Oeste 0 -- -- 31
2019-04-03 16:00:00 20.2 20 Oeste 36 Sudoeste 0 -- -- 31
2019-04-03 15:00:00 19.6 14 Oeste 29 Oeste 0 -- -- 36
2019-04-03 14:00:00 19.2 10 Oeste 18 Oeste 0 -- -- 41
2019-04-03 13:00:00 17.7 8 Noroeste 14 Oeste 0 -- -- 52
2019-04-03 12:00:00 16.5 3 Oeste 8 Oeste 0 -- -- 61
2019-04-03 11:00:00 13.8 5 Nordeste 12 Nordeste 0 -- -- 71
2019-04-03 10:00:00 10.7 9 Nordeste 12 Nordeste 0 -- -- 84
2019-04-03 09:00:00 8.6 7 Nordeste 12 Nordeste 0 -- -- 92
2019-04-03 08:00:00 8.5 8 Este 11 Nordeste 0 -- -- 91
2019-04-03 07:00:00 9.3 9 Este 11 Este 0 -- -- 87
2019-04-03 06:00:00 9.8 4 Este 10 Sur 0 -- -- 81
2019-04-03 05:00:00 10.5 4 Sudeste 9 Sur 0 -- -- 75
2019-04-03 04:00:00 11.6 3 Sudeste 5 Este 0 -- -- 69
2019-04-03 03:00:00 11.6 2 Este 7 Sur 0 -- -- 72
2019-04-03 02:00:00 12 6 Sur 9 Sur 0 -- -- 68
2019-04-03 01:00:00 13.5 0 Calma 5 Este 0 -- -- 58
2019-04-03 00:00:00 13.7 3 Nordeste 6 Nordeste 0 -- -- 59
2019-04-02 23:00:00 14.4 0 Calma 5 Noroeste 0 -- -- 53
2019-04-02 22:00:00 15.1 0 Calma 3 Noroeste 0 -- -- 52
2019-04-02 21:00:00 15.7 0 Calma 8 Sudoeste 0 -- -- 51
2019-04-02 20:00:00 17.4 3 Oeste 16 Oeste 0 -- -- 44
2019-04-02 19:00:00 17.5 8 Noroeste 20 Noroeste 0 -- -- 46
2019-04-02 18:00:00 18.1 8 Noroeste 21 Oeste 0 -- -- 42
2019-04-02 17:00:00 18.6 10 Noroeste 21 Noroeste 0 -- -- 41
2019-04-02 16:00:00 18.5 8 Oeste 15 Oeste 0 -- -- 43
2019-04-02 15:00:00 17.8 4 Sur 17 Oeste 0 -- -- 48
2019-04-02 14:00:00 15.9 4 Norte 13 Oeste 0 -- -- 54
2019-04-02 13:00:00 15.4 3 Nordeste 9 Sudoeste 0 -- -- 70
2019-04-02 12:00:00 13.5 3 Nordeste 8 Noroeste 0 -- -- 80
2019-04-02 11:00:00 11.3 3 Norte 8 Nordeste 0 -- -- 89
2019-04-02 10:00:00 9.6 4 Nordeste 8 Nordeste 0 -- -- 96
2019-04-02 09:00:00 8.1 0 Calma 10 Nordeste 0 -- -- 96
2019-04-02 08:00:00 8 6 Nordeste 10 Nordeste 0 -- -- 95
2019-04-02 07:00:00 8.1 2 Este 6 Noroeste 0 -- -- 95
2019-04-02 06:00:00 8.9 5 Sudeste 11 Este 0 -- -- 93
2019-04-02 05:00:00 9.5 8 Este 10 Este 0 -- -- 94
2019-04-02 04:00:00 9.8 5 Este 8 Este 0 -- -- 94
2019-04-02 03:00:00 10 5 Nordeste 7 Nordeste 0.2 -- -- 93
2019-04-02 02:00:00 10 0 Calma 8 Nordeste 0 -- -- 93
2019-04-02 01:00:00 10.5 4 Sudeste 6 Este 0 -- -- 93
2019-04-02 00:00:00 10.8 2 Sur 14 Sudeste 0 -- -- 93
2019-04-01 23:00:00 11.1 11 Sudeste 14 Sudeste 0.2 -- -- 93
2019-04-01 22:00:00 11.3 6 Sudeste 11 Sur 0.2 -- -- 93
2019-04-01 21:00:00 11.1 0 Calma 9 Norte 0 -- -- 92
2019-04-01 20:00:00 11.6 4 Este 14 Sudoeste 0.6 -- -- 91
2019-04-01 19:00:00 11.5 15 Sudoeste 41 Sudoeste 0.4 -- -- 86
2019-04-01 18:00:00 15.6 14 Sur 21 Sur 0 -- -- 63
2019-04-01 17:00:00 15 15 Sur 25 Sur 0 -- -- 68
2019-04-01 16:00:00 14.1 17 Sur 26 Sur 0 -- -- 75
2019-04-01 15:00:00 13.9 26 Sur 36 Sur 0 -- -- 76
2019-04-01 14:00:00 14.8 12 Sudoeste 19 Sur 0 -- -- 69
2019-04-01 13:00:00 14 13 Sudoeste 24 Sur 0 -- -- 72
2019-04-01 12:00:00 13.9 17 Sur 26 Sudoeste 0 -- -- 71
2019-04-01 11:00:00 12.2 12 Sur 18 Sur 0 -- -- 84
2019-04-01 10:00:00 11.7 2 Este 9 Nordeste 0 -- -- 92
2019-04-01 09:00:00 9.5 5 Sudeste 9 Sudeste 0 -- -- 94
2019-04-01 08:00:00 9.3 3 Sur 6 Nordeste 0 -- -- 94
2019-04-01 07:00:00 10.1 6 Este 13 Sur 0 -- -- 94
2019-04-01 06:00:00 10.4 4 Sudeste 8 Sudeste 0 -- -- 92
2019-04-01 05:00:00 10.4 0 Calma 8 Nordeste 0 -- -- 95
2019-04-01 04:00:00 10.4 5 Nordeste 7 Nordeste 0 -- -- 94
2019-04-01 03:00:00 10.9 2 Sudeste 7 Sudeste 0 -- -- 94
2019-04-01 02:00:00 10.8 5 Este 8 Este 0 -- -- 94
2019-04-01 01:00:00 10.9 3 Nordeste 9 Sur 0.2 -- -- 94
2019-04-01 00:00:00 10.8 5 Sudeste 8 Sudeste 1.4 -- -- 93
2019-03-31 23:00:00 10.6 3 Sudoeste 31 Sudoeste 5.2 -- -- 91
2019-03-31 22:00:00 11.2 21 Sudoeste 33 Oeste 0.6 -- -- 87
2019-03-31 21:00:00 14.7 22 Sudoeste 33 Sudoeste 0 -- -- 72
2019-03-31 20:00:00 16.7 4 Norte 15 Norte 0 -- -- 56
2019-03-31 19:00:00 17.6 6 Norte 13 Norte 0 -- -- 58
2019-03-31 18:00:00 16 5 Nordeste 18 Norte 0 -- -- 59
2019-03-31 17:00:00 16.4 7 Norte 17 Norte 0 -- -- 63
2019-03-31 16:00:00 16 8 Norte 16 Norte 0 -- -- 68
2019-03-31 15:00:00 14.9 4 Noroeste 11 Nordeste 0 -- -- 79
2019-03-31 14:00:00 13.5 3 Norte 7 Norte 0 -- -- 86
2019-03-31 13:00:00 12.4 2 Nordeste 5 Norte 0.6 -- -- 92
2019-03-31 12:00:00 12.1 2 Norte 4 Nordeste 0 -- -- 94
2019-03-31 11:00:00 11.1 0 Calma 5 Norte 0.2 -- -- 95
2019-03-31 10:00:00 11 4 Sudeste 9 Sudeste 1 -- -- 94
2019-03-31 09:00:00 11 0 Calma 5 Sudeste 1.6 -- -- 94
2019-03-31 08:00:00 10.9 3 Sur 6 Sur 1.2 -- -- 93
2019-03-31 07:00:00 11.1 5 Sur 6 Sudeste 0.8 -- -- 91
2019-03-31 06:00:00 11.3 4 Sur 5 Sur 0.4 -- -- 87
2019-03-31 05:00:00 11.4 4 Sur 5 Sur 0 -- -- 83
2019-03-31 03:00:00 11.7 4 Sudoeste 21 Sur 0 -- -- 72
2019-03-31 01:00:00 12.2 14 Sur 32 Sur 0 -- -- 68
2019-03-31 00:00:00 12.3 20 Sur 34 Sur 0 -- -- 66
2019-03-30 23:00:00 12.4 21 Sur 32 Sur 0 -- -- 63
2019-03-30 22:00:00 12.2 16 Sur 26 Sur 0 -- -- 62
2019-03-30 21:00:00 12.7 23 Sur 37 Sur 0 -- -- 59
2019-03-30 20:00:00 12.8 15 Sur 40 Sur 0 -- -- 59
2019-03-30 19:00:00 13.2 33 Sur 53 Sudeste 0 -- -- 58
2019-03-30 18:00:00 14.5 32 Sur 48 Sur 0 -- -- 53
2019-03-30 17:00:00 16.5 34 Sur 49 Sur 0 -- -- 45
2019-03-30 16:00:00 17.9 31 Sur 44 Sur 0 -- -- 38
2019-03-30 15:00:00 17.8 27 Sur 42 Sur 0 -- -- 39
2019-03-30 14:00:00 18.5 24 Sur 35 Sur 0 -- -- 38
2019-03-30 13:00:00 18.4 18 Sudoeste 29 Sur 0 -- -- 35
2019-03-30 12:00:00 17.7 13 Sur 23 Sudoeste 0 -- -- 32
2019-03-30 11:00:00 15.9 5 Sudeste 19 Sudeste 0 -- -- 39
2019-03-30 10:00:00 13.8 9 Nordeste 15 Nordeste 0 -- -- 46
2019-03-30 09:00:00 12.3 11 Sudeste 23 Sudeste 0 -- -- 55
2019-03-30 08:00:00 10.5 15 Sudeste 26 Sur 0 -- -- 63
2019-03-30 07:00:00 9.6 7 Este 18 Este 0 -- -- 62
2019-03-30 06:00:00 10 12 Sudeste 28 Sudeste 0 -- -- 64
2019-03-30 05:00:00 9.6 12 Sudeste 30 Sudeste 0 -- -- 64
2019-03-30 04:00:00 10.5 19 Sudeste 34 Sudeste 0 -- -- 62
2019-03-30 03:00:00 11 21 Sudeste 39 Sudeste 0 -- -- 60
2019-03-30 02:00:00 11.2 24 Sudeste 41 Sudeste 0 -- -- 60
2019-03-30 01:00:00 11 18 Sur 32 Sur 0 -- -- 63
2019-03-30 00:00:00 11.2 16 Sudeste 40 Sur 0 -- -- 64
2019-03-29 23:00:00 11.3 23 Sur 46 Sur 0 -- -- 59
2019-03-29 22:00:00 11.3 22 Sur 33 Sur 0 -- -- 58
2019-03-29 21:00:00 12 19 Sur 28 Sur 0 -- -- 56
2019-03-29 20:00:00 13.1 14 Sur 37 Sur 0 -- -- 49
2019-03-29 19:00:00 14.3 27 Sur 43 Sur 0 -- -- 43
2019-03-29 18:00:00 16.3 30 Sur 46 Sur 0 -- -- 35
2019-03-29 17:00:00 17.4 30 Sur 44 Sur 0 -- -- 34
2019-03-29 16:00:00 18 31 Sur 44 Sur 0 -- -- 32
2019-03-29 15:00:00 17.5 28 Sur 42 Sur 0 -- -- 30
2019-03-29 14:00:00 18.3 23 Sur 42 Sur 0 -- -- 29
2019-03-29 13:00:00 17.8 25 Sur 41 Sudeste 0 -- -- 27
2019-03-29 12:00:00 17.1 21 Sur 55 Sudeste 0 -- -- 29
2019-03-29 11:00:00 15.1 6 Este 25 Sur 0 -- -- 28
2019-03-29 10:00:00 12.6 8 Nordeste 15 Este 0 -- -- 26
2019-03-29 09:00:00 10.9 9 Este 19 Sudeste 0 -- -- 26
2019-03-29 08:00:00 8.2 10 Este 21 Este 0 -- -- 29
2019-03-29 07:00:00 7.3 8 Sudeste 20 Sudeste 0 -- -- 30
2019-03-29 06:00:00 8.3 14 Este 27 Sudeste 0 -- -- 26
2019-03-29 05:00:00 7.8 13 Sudeste 22 Sudeste 0 -- -- 29
2019-03-29 04:00:00 7.5 11 Sudeste 18 Este 0 -- -- 38
2019-03-29 03:00:00 8 5 Este 20 Sur 0 -- -- 49
2019-03-29 02:00:00 8 13 Sur 22 Sudeste 0 -- -- 62
2019-03-29 01:00:00 8.4 17 Sudeste 23 Sudeste 0 -- -- 57
2019-03-29 00:00:00 8.7 4 Sur 17 Sur 0 -- -- 60
2019-03-28 23:00:00 10.1 16 Sur 31 Sur 0 -- -- 57
2019-03-28 22:00:00 10.5 9 Sudeste 19 Sudeste 0 -- -- 51
2019-03-28 21:00:00 10.9 13 Sur 36 Sur 0 -- -- 47
2019-03-28 20:00:00 11.9 27 Sur 42 Sur 0 -- -- 43
2019-03-28 19:00:00 14.1 28 Sur 46 Sur 0 -- -- 32
2019-03-28 18:00:00 16.3 30 Sur 45 Sur 0 -- -- 22
2019-03-28 17:00:00 17.9 28 Sur 45 Sur 0 -- -- 16
2019-03-28 16:00:00 19 21 Sur 34 Sudeste 0 -- -- 15
2019-03-28 15:00:00 18.6 22 Sur 35 Sur 0 -- -- 13
2019-03-28 14:00:00 18.1 21 Sudeste 32 Sudeste 0 -- -- 12
2019-03-28 13:00:00 17.3 17 Sudeste 35 Sudeste 0 -- -- 17
2019-03-28 12:00:00 16.1 20 Sudeste 31 Sudeste 0 -- -- 25
2019-03-28 11:00:00 14.9 17 Este 32 Este 0 -- -- 27
2019-03-28 10:00:00 12.9 10 Sudeste 22 Sudeste 0 -- -- 36
2019-03-28 09:00:00 10.1 8 Este 15 Nordeste 0 -- -- 51
2019-03-28 08:00:00 7 9 Sudeste 16 Sudeste 0 -- -- 70
2019-03-28 07:00:00 6.8 5 Este 12 Este 0 -- -- 72
2019-03-28 06:00:00 7.5 7 Este 15 Sudeste 0 -- -- 70
2019-03-28 05:00:00 7.5 12 Sudeste 17 Sudeste 0 -- -- 72
2019-03-28 04:00:00 8 4 Nordeste 14 Sudeste 0 -- -- 71
2019-03-28 03:00:00 9.3 11 Sudeste 17 Sudeste 0 -- -- 64
2019-03-28 02:00:00 9.5 14 Sudeste 20 Sudeste 0 -- -- 65
2019-03-28 01:00:00 10.2 15 Sudeste 33 Sur 0 -- -- 65
2019-03-28 00:00:00 10.7 23 Sudeste 37 Sudeste 0 -- -- 62
2019-03-27 23:00:00 10.5 21 Sur 36 Sur 0 -- -- 61
2019-03-27 22:00:00 10.6 21 Sur 36 Sudeste 0 -- -- 58
2019-03-27 21:00:00 11.1 22 Sur 32 Sur 0 -- -- 57
2019-03-27 20:00:00 12.1 17 Sur 37 Sur 0 -- -- 51
2019-03-27 19:00:00 14.3 24 Sur 37 Sur 0 -- -- 42
2019-03-27 18:00:00 16.3 26 Sur 38 Sudoeste 0 -- -- 32
2019-03-27 17:00:00 17.8 21 Sudoeste 38 Sudoeste 0 -- -- 28
2019-03-27 16:00:00 18.4 28 Sudoeste 39 Sudoeste 0 -- -- 24
2019-03-27 15:00:00 19.6 8 Sur 19 Noroeste 0 -- -- 10
2019-03-27 14:00:00 18.2 11 Norte 21 Nordeste 0 -- -- 13
2019-03-27 13:00:00 17.6 11 Nordeste 21 Nordeste 0 -- -- 13
2019-03-27 12:00:00 16.4 5 Este 19 Este 0 -- -- 16
2019-03-27 11:00:00 14.7 4 Nordeste 19 Sudeste 0 -- -- 19
2019-03-27 10:00:00 12.8 9 Nordeste 17 Nordeste 0 -- -- 22
2019-03-27 09:00:00 10.8 4 Nordeste 10 Norte 0 -- -- 34
2019-03-27 08:00:00 8.4 5 Nordeste 11 Sudeste 0 -- -- 47
2019-03-27 07:00:00 8.3 12 Sudeste 15 Sudeste 0 -- -- 41
2019-03-27 06:00:00 9.1 4 Este 14 Este 0 -- -- 71
2019-03-27 05:00:00 8.8 10 Sudeste 18 Sur 0 -- -- 72
2019-03-27 04:00:00 9.8 14 Sur 23 Sur 0 -- -- 68
2019-03-27 03:00:00 10.7 10 Sudeste 17 Sudeste 0 -- -- 74
2019-03-27 02:00:00 10.5 6 Sudeste 21 Sur 0 -- -- 75
2019-03-27 01:00:00 11 13 Sur 24 Sudeste 0 -- -- 76
2019-03-27 00:00:00 11.6 15 Sur 28 Sur 0 -- -- 73